Time;durP1;ratioP1;P1;durP2;ratioP2;P2;SDS_P1;SDS_P2;PMS_P1;PMS_P2;Temp;Humidity;BMP_temperature;BMP_pressure;BME280_temperature;BME280_humidity;BME280_pressure;Samples;Min_cycle;Max_cycle;Signal;HPM_P1;HPM_P2
2022/05/15 00:01:30;;;;;;;13.75;5.88;;;;;;;;;;4873754;29;20056;-64
2022/05/15 00:03:57;;;;;;;18.05;5.38;;;;;;;;;;4930894;28;20150;-64
2022/05/15 00:06:24;;;;;;;11.05;4.45;;;;;;;;;;4927592;29;20119;-64
2022/05/15 00:08:52;;;;;;;9.38;4.70;;;;;;;;;;4946703;28;20118;-64
2022/05/15 00:11:19;;;;;;;6.97;3.60;;;;;;;;;;4923054;29;20110;-64
2022/05/15 00:13:47;;;;;;;15.75;4.00;;;;;;;;;;4946966;28;20106;-64
2022/05/15 00:16:14;;;;;;;10.73;3.33;;;;;;;;;;4931744;29;20515;-64
2022/05/15 00:18:43;;;;;;;8.10;2.50;;;;;;;;;;4949157;28;20117;-64
2022/05/15 00:21:10;;;;;;;7.45;3.33;;;;;;;;;;4939368;28;20047;-64
2022/05/15 00:23:38;;;;;;;7.80;2.60;;;;;;;;;;4928034;28;20070;-64
2022/05/15 00:26:05;;;;;;;7.25;2.83;;;;;;;;;;4943042;28;20130;-64
2022/05/15 00:28:32;;;;;;;8.95;3.22;;;;;;;;;;4944205;28;20056;-64
2022/05/15 00:30:59;;;;;;;8.13;2.78;;;;;;;;;;4944960;28;20074;-64
2022/05/15 00:33:26;;;;;;;12.90;4.85;;;;;;;;;;4939758;28;20114;-64
2022/05/15 00:35:55;;;;;;;14.23;4.03;;;;;;;;;;4941854;28;20055;-64
2022/05/15 00:38:22;;;;;;;14.30;4.57;;;;;;;;;;4946964;28;20585;-64
2022/05/15 00:40:51;;;;;;;15.73;4.07;;;;;;;;;;4937947;28;20055;-64
2022/05/15 00:43:33;;;;;;;14.18;4.85;;;;;;;;;;4929296;28;20055;-64
2022/05/15 00:46:00;;;;;;;15.15;4.70;;;;;;;;;;4929017;28;20462;-64
2022/05/15 00:48:27;;;;;;;16.13;4.93;;;;;;;;;;4944942;28;20098;-64
2022/05/15 00:50:57;;;;;;;20.63;5.63;;;;;;;;;;4946653;28;20114;-64
2022/05/15 00:53:24;;;;;;;13.70;4.97;;;;;;;;;;4940956;28;20057;-64
2022/05/15 00:55:52;;;;;;;16.58;5.25;;;;;;;;;;4939908;28;20055;-64
2022/05/15 00:58:22;;;;;;;18.10;5.65;;;;;;;;;;4940299;28;20047;-64
2022/05/15 01:00:49;;;;;;;13.75;4.63;;;;;;;;;;4937190;28;20058;-64
2022/05/15 01:03:17;;;;;;;11.32;3.35;;;;;;;;;;4943838;28;20458;-64
2022/05/15 01:05:46;;;;;;;13.18;3.33;;;;;;;;;;4943693;28;20055;-64
2022/05/15 01:08:15;;;;;;;10.27;3.83;;;;;;;;;;4948481;28;20161;-64
2022/05/15 01:10:44;;;;;;;10.85;3.50;;;;;;;;;;4919800;29;20362;-64
2022/05/15 01:13:12;;;;;;;10.10;3.20;;;;;;;;;;4924702;29;20048;-64
2022/05/15 01:15:40;;;;;;;9.15;3.13;;;;;;;;;;4945429;28;20125;-64
2022/05/15 01:18:08;;;;;;;12.77;3.95;;;;;;;;;;4931611;28;20059;-64
2022/05/15 01:20:36;;;;;;;11.48;4.05;;;;;;;;;;4939646;28;20055;-64
2022/05/15 01:23:04;;;;;;;14.93;4.50;;;;;;;;;;4943803;28;20106;-64
2022/05/15 01:25:33;;;;;;;14.48;4.43;;;;;;;;;;4945108;28;20114;-64
2022/05/15 01:28:03;;;;;;;15.10;4.90;;;;;;;;;;4945067;28;20055;-64
2022/05/15 01:30:31;;;;;;;16.67;5.22;;;;;;;;;;4924697;29;20070;-64
2022/05/15 01:32:58;;;;;;;19.08;5.63;;;;;;;;;;4943244;28;20051;-64
2022/05/15 01:35:25;;;;;;;13.75;4.20;;;;;;;;;;4938727;28;20067;-64
2022/05/15 01:37:52;;;;;;;12.35;4.10;;;;;;;;;;4942341;28;20392;-64
2022/05/15 01:40:21;;;;;;;9.55;3.38;;;;;;;;;;4926735;28;20056;-64
2022/05/15 01:42:48;;;;;;;12.60;3.80;;;;;;;;;;4942705;28;20118;-64
2022/05/15 01:45:15;;;;;;;9.45;3.47;;;;;;;;;;4941683;28;20454;-64
2022/05/15 01:47:43;;;;;;;8.88;3.15;;;;;;;;;;4941954;28;20051;-64
2022/05/15 01:50:10;;;;;;;10.27;3.70;;;;;;;;;;4945183;28;20047;-64
2022/05/15 01:52:37;;;;;;;9.90;3.55;;;;;;;;;;4941874;28;20141;-64
2022/05/15 01:55:05;;;;;;;7.18;3.00;;;;;;;;;;4940735;28;20051;-64
2022/05/15 01:57:34;;;;;;;8.43;3.22;;;;;;;;;;4937574;28;20113;-64
2022/05/15 02:00:01;;;;;;;7.75;3.28;;;;;;;;;;4942284;28;20113;-64
2022/05/15 02:02:30;;;;;;;9.90;3.30;;;;;;;;;;4947288;28;20628;-64
2022/05/15 02:04:57;;;;;;;9.05;3.00;;;;;;;;;;4942606;28;20125;-64
2022/05/15 02:07:24;;;;;;;11.18;4.07;;;;;;;;;;4936726;28;20051;-64
2022/05/15 02:09:52;;;;;;;10.13;3.78;;;;;;;;;;4935574;28;20173;-64
2022/05/15 02:12:19;;;;;;;8.95;3.35;;;;;;;;;;4942576;28;20058;-64
2022/05/15 02:14:47;;;;;;;8.73;3.60;;;;;;;;;;4937310;28;20051;-64
2022/05/15 02:17:14;;;;;;;13.80;3.60;;;;;;;;;;4936618;28;20071;-64
2022/05/15 02:19:42;;;;;;;12.63;3.80;;;;;;;;;;4940785;28;20063;-64
2022/05/15 02:22:12;;;;;;;14.10;4.65;;;;;;;;;;4939468;28;20051;-64
2022/05/15 02:24:39;;;;;;;12.05;4.40;;;;;;;;;;4945095;28;20047;-64
2022/05/15 02:27:07;;;;;;;14.55;5.28;;;;;;;;;;4937308;28;20047;-64
2022/05/15 02:29:34;;;;;;;15.13;5.50;;;;;;;;;;4921907;28;20139;-64
2022/05/15 02:32:03;;;;;;;15.77;4.78;;;;;;;;;;4940431;28;20063;-64
2022/05/15 02:34:30;;;;;;;19.42;5.90;;;;;;;;;;4940606;28;20098;-64
2022/05/15 02:36:57;;;;;;;15.13;4.63;;;;;;;;;;4921465;28;20055;-64
2022/05/15 02:39:24;;;;;;;13.75;4.10;;;;;;;;;;4941723;28;20055;-64
2022/05/15 02:41:51;;;;;;;10.43;3.80;;;;;;;;;;4935841;28;20118;-64
2022/05/15 02:44:18;;;;;;;9.63;3.40;;;;;;;;;;4939151;28;20474;-64
2022/05/15 02:46:46;;;;;;;10.25;3.60;;;;;;;;;;4939546;28;20074;-64
2022/05/15 02:51:59;;;;;;;7.70;3.03;;;;;;;;;;4940690;28;20450;-64
2022/05/15 02:54:26;;;;;;;7.05;2.80;;;;;;;;;;4934100;28;20058;-64
2022/05/15 02:56:54;;;;;;;8.95;2.40;;;;;;;;;;4940568;28;20059;-64
2022/05/15 02:59:21;;;;;;;6.07;2.47;;;;;;;;;;4937773;28;20136;-64
2022/05/15 03:01:48;;;;;;;9.52;2.65;;;;;;;;;;4939247;28;20150;-64
2022/05/15 03:04:17;;;;;;;6.95;2.45;;;;;;;;;;4939630;28;20122;-64
2022/05/15 03:06:44;;;;;;;6.57;2.30;;;;;;;;;;4915474;29;20059;-64
2022/05/15 03:09:12;;;;;;;8.27;2.38;;;;;;;;;;4921898;28;20055;-64
2022/05/15 03:11:39;;;;;;;5.90;1.90;;;;;;;;;;4941088;28;20062;-64
2022/05/15 03:14:06;;;;;;;9.52;2.78;;;;;;;;;;4935544;28;20955;-64
2022/05/15 03:16:34;;;;;;;8.82;2.80;;;;;;;;;;4939382;29;20059;-65
2022/05/15 03:19:01;;;;;;;6.80;2.20;;;;;;;;;;4920900;28;20066;-64
2022/05/15 03:21:29;;;;;;;6.38;2.67;;;;;;;;;;4937059;28;20055;-64
2022/05/15 03:23:57;;;;;;;6.07;2.65;;;;;;;;;;4940407;28;20106;-64
2022/05/15 03:26:24;;;;;;;11.13;3.15;;;;;;;;;;4944201;28;20095;-64
2022/05/15 03:28:52;;;;;;;12.15;4.00;;;;;;;;;;4940792;28;20119;-64
2022/05/15 03:31:19;;;;;;;7.60;2.83;;;;;;;;;;4917110;29;20635;-64
2022/05/15 03:33:46;;;;;;;8.82;3.20;;;;;;;;;;4939566;28;20055;-64
2022/05/15 03:36:14;;;;;;;11.98;3.53;;;;;;;;;;4939253;28;20473;-64
2022/05/15 03:38:43;;;;;;;12.48;3.53;;;;;;;;;;4938892;28;20055;-64
2022/05/15 03:41:11;;;;;;;8.18;3.47;;;;;;;;;;4939059;28;20119;-64
2022/05/15 03:43:38;;;;;;;9.00;3.38;;;;;;;;;;4942212;28;20043;-64
2022/05/15 03:46:06;;;;;;;16.33;4.03;;;;;;;;;;4939713;28;20652;-64
2022/05/15 03:48:34;;;;;;;9.75;3.58;;;;;;;;;;4939521;28;20518;-64
2022/05/15 03:51:01;;;;;;;14.55;4.40;;;;;;;;;;4939850;28;20126;-64
2022/05/15 03:53:29;;;;;;;9.38;3.70;;;;;;;;;;4937520;28;20052;-64
2022/05/15 03:55:58;;;;;;;8.90;3.40;;;;;;;;;;4939717;29;20055;-64
2022/05/15 03:58:26;;;;;;;8.60;3.08;;;;;;;;;;4939352;29;20048;-64
2022/05/15 04:00:54;;;;;;;10.35;3.80;;;;;;;;;;4936029;28;20047;-64
2022/05/15 04:03:21;;;;;;;12.60;3.70;;;;;;;;;;4945417;28;20553;-64
2022/05/15 04:05:48;;;;;;;8.55;3.42;;;;;;;;;;4942786;28;20055;-64
2022/05/15 04:08:15;;;;;;;10.55;4.05;;;;;;;;;;4949298;28;20059;-64
2022/05/15 04:10:43;;;;;;;10.27;4.00;;;;;;;;;;4944477;28;20055;-64
2022/05/15 04:13:11;;;;;;;14.25;3.97;;;;;;;;;;4943772;28;20116;-64
2022/05/15 04:15:39;;;;;;;9.00;3.78;;;;;;;;;;4942358;28;20050;-64
2022/05/15 04:18:09;;;;;;;10.70;3.22;;;;;;;;;;4941441;28;20051;-64
2022/05/15 04:20:36;;;;;;;9.30;3.65;;;;;;;;;;4940015;28;20051;-64
2022/05/15 04:23:04;;;;;;;10.02;3.20;;;;;;;;;;4925672;29;20051;-64
2022/05/15 04:25:31;;;;;;;11.65;3.95;;;;;;;;;;4919949;29;20051;-64
2022/05/15 04:27:58;;;;;;;9.70;3.60;;;;;;;;;;4942196;28;20110;-64
2022/05/15 04:30:28;;;;;;;12.20;3.97;;;;;;;;;;4942976;28;20118;-64
2022/05/15 04:32:55;;;;;;;13.27;4.18;;;;;;;;;;4938129;28;20055;-64
2022/05/15 04:35:23;;;;;;;14.13;5.55;;;;;;;;;;4938340;28;20410;-64
2022/05/15 04:37:51;;;;;;;19.35;5.68;;;;;;;;;;4938312;28;20056;-64
2022/05/15 04:40:19;;;;;;;16.33;5.38;;;;;;;;;;4936250;28;20094;-64
2022/05/15 04:42:46;;;;;;;26.15;6.07;;;;;;;;;;4935279;28;20391;-64
2022/05/15 04:45:13;;;;;;;21.30;4.90;;;;;;;;;;4939858;28;20051;-64
2022/05/15 04:47:44;;;;;;;16.73;5.45;;;;;;;;;;4942301;28;20051;-64
2022/05/15 04:50:11;;;;;;;23.80;6.28;;;;;;;;;;4943137;28;20118;-64
2022/05/15 04:52:38;;;;;;;23.52;6.57;;;;;;;;;;4942560;28;20051;-64
2022/05/15 04:55:06;;;;;;;23.35;6.45;;;;;;;;;;4936238;28;20047;-64
2022/05/15 04:57:33;;;;;;;23.98;6.38;;;;;;;;;;4925444;29;20060;-64
2022/05/15 05:00:00;;;;;;;20.98;6.05;;;;;;;;;;4938101;28;20059;-64
2022/05/15 05:02:28;;;;;;;30.63;6.60;;;;;;;;;;4921091;29;20062;-64
2022/05/15 05:04:59;;;;;;;27.48;6.90;;;;;;;;;;4944412;28;20078;-64
2022/05/15 05:07:26;;;;;;;22.38;7.15;;;;;;;;;;4941490;28;20052;-64
2022/05/15 05:09:53;;;;;;;27.08;6.72;;;;;;;;;;4920832;29;20070;-64
2022/05/15 05:12:21;;;;;;;25.38;6.47;;;;;;;;;;4942314;29;20058;-64
2022/05/15 05:14:48;;;;;;;25.38;7.13;;;;;;;;;;4936343;28;20055;-64
2022/05/15 05:17:15;;;;;;;28.73;7.50;;;;;;;;;;4938733;28;20489;-64
2022/05/15 05:19:43;;;;;;;26.50;6.68;;;;;;;;;;4935439;28;20055;-64
2022/05/15 05:22:11;;;;;;;33.90;7.32;;;;;;;;;;4940249;28;20161;-64
2022/05/15 05:24:38;;;;;;;28.50;7.40;;;;;;;;;;4941260;28;20043;-64
2022/05/15 05:27:06;;;;;;;28.30;7.60;;;;;;;;;;4936729;28;20059;-64
2022/05/15 05:29:34;;;;;;;34.35;8.05;;;;;;;;;;4935159;28;20110;-64
2022/05/15 05:32:01;;;;;;;32.53;8.32;;;;;;;;;;4915484;29;20107;-64
2022/05/15 05:34:28;;;;;;;27.55;7.07;;;;;;;;;;4915113;29;20048;-64
2022/05/15 05:36:55;;;;;;;30.95;7.82;;;;;;;;;;4935515;28;20459;-64
2022/05/15 05:39:24;;;;;;;26.90;7.22;;;;;;;;;;4938642;28;20071;-64
2022/05/15 05:41:51;;;;;;;28.15;7.32;;;;;;;;;;4934449;28;20115;-64
2022/05/15 05:44:18;;;;;;;28.95;7.60;;;;;;;;;;4944324;28;20056;-64
2022/05/15 05:46:45;;;;;;;39.28;8.43;;;;;;;;;;4940582;28;20059;-64
2022/05/15 05:49:13;;;;;;;38.97;7.45;;;;;;;;;;4941616;28;20051;-64
2022/05/15 05:51:40;;;;;;;31.10;6.88;;;;;;;;;;4942671;29;20055;-64
2022/05/15 05:54:07;;;;;;;28.75;6.97;;;;;;;;;;4940728;28;20060;-64
2022/05/15 05:56:35;;;;;;;28.38;7.30;;;;;;;;;;4939671;28;20056;-64
2022/05/15 05:59:03;;;;;;;35.30;7.63;;;;;;;;;;4941202;28;20468;-64
2022/05/15 06:01:30;;;;;;;30.52;7.10;;;;;;;;;;4919423;29;20234;-64
2022/05/15 06:06:43;;;;;;;35.58;7.70;;;;;;;;;;4941966;28;20367;-64
2022/05/15 06:09:10;;;;;;;27.33;6.93;;;;;;;;;;4939767;28;20587;-64
2022/05/15 06:11:39;;;;;;;36.47;8.90;;;;;;;;;;4939838;28;20568;-64
2022/05/15 06:14:06;;;;;;;27.98;7.20;;;;;;;;;;4938592;28;20054;-64
2022/05/15 06:16:33;;;;;;;30.35;7.32;;;;;;;;;;4920909;28;20051;-64
2022/05/15 06:19:00;;;;;;;35.78;7.38;;;;;;;;;;4934719;28;20051;-64
2022/05/15 06:21:27;;;;;;;28.80;6.97;;;;;;;;;;4936702;28;20517;-65
2022/05/15 06:23:55;;;;;;;36.55;7.78;;;;;;;;;;4934213;29;21215;-65
2022/05/15 06:26:22;;;;;;;36.50;7.55;;;;;;;;;;4933846;28;20059;-65
2022/05/15 06:28:50;;;;;;;35.15;8.38;;;;;;;;;;4921145;29;20055;-65
2022/05/15 06:31:17;;;;;;;32.20;7.20;;;;;;;;;;4938565;28;20051;-65
2022/05/15 06:33:45;;;;;;;32.75;7.00;;;;;;;;;;4937337;28;20060;-65
2022/05/15 06:36:12;;;;;;;34.65;7.13;;;;;;;;;;4922906;29;20131;-65
2022/05/15 06:38:41;;;;;;;33.53;7.22;;;;;;;;;;4938958;28;20059;-65
2022/05/15 06:41:08;;;;;;;36.97;7.05;;;;;;;;;;4939063;28;20977;-65
2022/05/15 06:43:35;;;;;;;36.40;8.55;;;;;;;;;;4940387;28;20138;-65
2022/05/15 06:46:04;;;;;;;38.75;7.72;;;;;;;;;;4941588;28;20106;-65
2022/05/15 06:48:33;;;;;;;36.00;7.40;;;;;;;;;;4938614;28;20062;-65
2022/05/15 06:51:00;;;;;;;33.13;7.47;;;;;;;;;;4924552;28;20055;-64
2022/05/15 06:53:27;;;;;;;37.60;8.23;;;;;;;;;;4939629;28;20055;-64
2022/05/15 06:58:39;;;;;;;29.58;6.32;;;;;;;;;;4938446;28;20053;-64
2022/05/15 07:01:08;;;;;;;35.58;7.82;;;;;;;;;;4940125;28;20051;-64
2022/05/15 07:03:35;;;;;;;33.45;7.30;;;;;;;;;;4939879;28;20059;-64
2022/05/15 07:06:03;;;;;;;27.13;6.72;;;;;;;;;;4940821;28;20070;-64
2022/05/15 07:08:30;;;;;;;33.35;7.38;;;;;;;;;;4922160;29;20055;-65
2022/05/15 07:10:58;;;;;;;31.17;6.82;;;;;;;;;;4939789;28;20051;-65
2022/05/15 07:13:25;;;;;;;40.05;7.90;;;;;;;;;;4941703;28;20059;-65
2022/05/15 07:15:52;;;;;;;29.92;6.60;;;;;;;;;;4937935;28;20059;-65
2022/05/15 07:18:23;;;;;;;36.75;7.07;;;;;;;;;;4938701;28;20051;-65
2022/05/15 07:20:51;;;;;;;35.35;6.90;;;;;;;;;;4923594;29;20091;-65
2022/05/15 07:23:18;;;;;;;25.77;6.00;;;;;;;;;;4944300;28;20077;-65
2022/05/15 07:25:46;;;;;;;35.05;7.28;;;;;;;;;;4942885;28;20059;-65
2022/05/15 07:28:13;;;;;;;26.38;5.93;;;;;;;;;;4923557;29;20063;-65
2022/05/15 07:30:40;;;;;;;32.95;7.78;;;;;;;;;;4937461;28;20043;-65
2022/05/15 07:33:08;;;;;;;28.58;6.78;;;;;;;;;;4938225;29;20060;-65
2022/05/15 07:35:37;;;;;;;28.33;6.47;;;;;;;;;;4939312;28;20107;-65
2022/05/15 07:38:04;;;;;;;34.72;6.90;;;;;;;;;;4940343;28;20043;-65
2022/05/15 07:40:31;;;;;;;25.05;6.22;;;;;;;;;;4923212;28;20585;-65
2022/05/15 07:42:58;;;;;;;29.73;6.30;;;;;;;;;;4944420;28;20062;-65
2022/05/15 07:45:26;;;;;;;26.30;5.53;;;;;;;;;;4925127;28;20115;-65
2022/05/15 07:47:53;;;;;;;37.45;6.97;;;;;;;;;;4945604;28;20059;-65
2022/05/15 07:50:20;;;;;;;25.33;5.70;;;;;;;;;;4940416;28;20860;-65
2022/05/15 07:52:49;;;;;;;24.40;6.25;;;;;;;;;;4942625;28;20113;-65
2022/05/15 07:55:16;;;;;;;28.80;5.50;;;;;;;;;;4929323;28;20051;-65
2022/05/15 07:57:43;;;;;;;28.00;6.43;;;;;;;;;;4947982;28;20863;-65
2022/05/15 08:00:13;;;;;;;26.50;5.72;;;;;;;;;;4929680;28;20122;-65
2022/05/15 08:02:41;;;;;;;27.52;6.03;;;;;;;;;;4945772;28;20074;-65
2022/05/15 08:08:02;;;;;;;27.83;5.55;;;;;;;;;;4946262;28;20055;-65
2022/05/15 08:10:29;;;;;;;18.52;4.55;;;;;;;;;;4947102;28;20051;-65
2022/05/15 08:12:56;;;;;;;25.02;5.38;;;;;;;;;;4947444;28;20053;-65
2022/05/15 08:15:24;;;;;;;28.48;4.88;;;;;;;;;;4946328;28;20051;-65
2022/05/15 08:17:51;;;;;;;24.90;5.72;;;;;;;;;;4930194;28;20055;-65
2022/05/15 08:25:49;;;;;;;22.63;5.13;;;;;;;;;;4947124;28;20069;-63
2022/05/15 08:28:17;;;;;;;21.48;5.15;;;;;;;;;;4947345;28;20055;-63
2022/05/15 08:30:44;;;;;;;24.73;5.28;;;;;;;;;;4946240;28;20063;-63
2022/05/15 08:33:12;;;;;;;24.27;5.00;;;;;;;;;;4945442;28;20051;-63
2022/05/15 08:35:39;;;;;;;23.60;4.97;;;;;;;;;;4928399;28;20055;-63
2022/05/15 08:38:08;;;;;;;21.48;4.88;;;;;;;;;;4945982;28;20118;-63
2022/05/15 08:40:40;;;;;;;17.42;4.72;;;;;;;;;;4929133;28;20055;-63
2022/05/15 08:43:10;;;;;;;19.38;4.72;;;;;;;;;;4947125;28;20463;-63
2022/05/15 08:45:42;;;;;;;23.33;5.32;;;;;;;;;;4943524;28;20039;-63
2022/05/15 08:48:12;;;;;;;18.95;4.78;;;;;;;;;;4942472;28;20051;-63
2022/05/15 08:50:43;;;;;;;20.10;4.72;;;;;;;;;;4926591;29;20059;-63
2022/05/15 08:53:15;;;;;;;20.80;5.07;;;;;;;;;;4948067;28;20075;-63
2022/05/15 08:55:43;;;;;;;21.63;4.82;;;;;;;;;;4947521;28;20079;-63
2022/05/15 08:58:11;;;;;;;20.50;5.35;;;;;;;;;;4946481;28;20059;-63
2022/05/15 09:00:40;;;;;;;28.13;5.72;;;;;;;;;;4950890;28;20578;-63
2022/05/15 09:03:12;;;;;;;25.75;5.50;;;;;;;;;;4946537;29;20059;-63
2022/05/15 09:05:41;;;;;;;27.67;6.05;;;;;;;;;;4947770;29;20074;-63
2022/05/15 09:08:20;;;;;;;25.27;5.25;;;;;;;;;;4950539;28;20087;-63
2022/05/15 09:10:51;;;;;;;18.52;4.55;;;;;;;;;;4949589;29;20060;-63
2022/05/15 09:13:23;;;;;;;26.90;5.32;;;;;;;;;;4950755;28;20139;-63
2022/05/15 09:15:58;;;;;;;20.25;5.00;;;;;;;;;;4948877;28;20078;-63
2022/05/15 09:18:26;;;;;;;20.92;4.95;;;;;;;;;;4950326;28;20565;-63
2022/05/15 09:20:59;;;;;;;25.73;5.38;;;;;;;;;;4931001;29;20091;-63
2022/05/15 09:23:32;;;;;;;21.17;6.10;;;;;;;;;;4931310;29;20062;-63
2022/05/15 09:26:00;;;;;;;18.45;4.95;;;;;;;;;;4949685;28;20062;-63
2022/05/15 09:28:28;;;;;;;19.63;4.72;;;;;;;;;;4945208;28;20123;-63
2022/05/15 09:30:57;;;;;;;18.58;4.65;;;;;;;;;;4950241;28;20114;-63
2022/05/15 09:33:27;;;;;;;23.48;4.88;;;;;;;;;;4946138;28;20577;-63
2022/05/15 09:36:09;;;;;;;19.15;4.68;;;;;;;;;;4933787;28;20047;-63
2022/05/15 09:38:38;;;;;;;21.55;4.72;;;;;;;;;;4929703;29;20123;-63
2022/05/15 09:43:57;;;;;;;18.67;4.78;;;;;;;;;;4946092;28;20050;-63
2022/05/15 09:46:26;;;;;;;18.42;4.47;;;;;;;;;;4950572;28;20059;-63
2022/05/15 09:48:54;;;;;;;19.83;4.82;;;;;;;;;;4934446;29;20066;-63
2022/05/15 09:51:29;;;;;;;18.15;4.78;;;;;;;;;;4932631;29;20487;-63
2022/05/15 09:53:59;;;;;;;20.45;4.93;;;;;;;;;;4932000;29;20067;-63
2022/05/15 09:56:29;;;;;;;22.50;5.22;;;;;;;;;;4936830;29;20059;-63
2022/05/15 09:58:58;;;;;;;17.15;4.80;;;;;;;;;;4948946;29;20130;-63
2022/05/15 10:01:28;;;;;;;18.27;4.70;;;;;;;;;;4949083;28;20114;-63
2022/05/15 10:03:57;;;;;;;17.98;5.03;;;;;;;;;;4949024;29;20075;-63
2022/05/15 10:06:26;;;;;;;21.48;4.75;;;;;;;;;;4931798;28;20055;-63
2022/05/15 10:09:11;;;;;;;25.55;6.03;;;;;;;;;;4949128;29;20054;-63
2022/05/15 10:11:41;;;;;;;20.60;5.00;;;;;;;;;;4944557;28;20051;-63
2022/05/15 10:14:10;;;;;;;20.05;5.25;;;;;;;;;;4947906;28;20063;-63
2022/05/15 10:16:42;;;;;;;18.90;5.15;;;;;;;;;;4948877;29;20051;-63
2022/05/15 10:19:09;;;;;;;20.27;4.65;;;;;;;;;;4948231;28;20107;-63
2022/05/15 10:21:40;;;;;;;25.13;5.20;;;;;;;;;;4949640;28;20054;-63
2022/05/15 10:24:10;;;;;;;18.75;5.35;;;;;;;;;;4946734;29;20062;-63
2022/05/15 10:26:42;;;;;;;19.58;4.97;;;;;;;;;;4949048;28;20167;-63
2022/05/15 10:29:15;;;;;;;20.58;4.60;;;;;;;;;;4948349;28;20106;-63
2022/05/15 10:31:46;;;;;;;19.10;5.10;;;;;;;;;;4951211;28;20063;-63
2022/05/15 10:34:15;;;;;;;20.13;4.72;;;;;;;;;;4948669;28;20058;-63
2022/05/15 10:36:57;;;;;;;21.13;6.00;;;;;;;;;;4928308;29;20522;-63
2022/05/15 10:39:29;;;;;;;20.10;4.75;;;;;;;;;;4930830;29;20071;-64
2022/05/15 10:42:01;;;;;;;18.05;5.05;;;;;;;;;;4930895;29;20466;-64
2022/05/15 10:44:48;;;;;;;20.75;5.68;;;;;;;;;;4946557;28;20135;-64
2022/05/15 10:47:18;;;;;;;21.17;5.15;;;;;;;;;;4949637;28;20055;-64
2022/05/15 10:49:52;;;;;;;25.13;6.40;;;;;;;;;;4944820;28;20059;-64
2022/05/15 10:52:26;;;;;;;28.70;5.70;;;;;;;;;;4952425;28;20114;-64
2022/05/15 10:57:47;;;;;;;24.77;5.95;;;;;;;;;;4945701;29;20043;-64
2022/05/15 11:00:19;;;;;;;19.10;5.03;;;;;;;;;;4948619;28;20055;-64
2022/05/15 11:03:17;;;;;;;22.40;6.30;;;;;;;;;;4947098;29;20129;-64
2022/05/15 11:05:47;;;;;;;24.42;6.72;;;;;;;;;;4887572;29;20060;-64
2022/05/15 11:08:23;;;;;;;19.63;5.50;;;;;;;;;;4916949;29;20118;-64
2022/05/15 11:10:57;;;;;;;21.23;5.30;;;;;;;;;;4948543;29;20114;-64
2022/05/15 11:13:26;;;;;;;19.60;4.95;;;;;;;;;;4950880;28;20113;-64
2022/05/15 11:15:57;;;;;;;15.60;4.80;;;;;;;;;;4946843;29;20515;-64
2022/05/15 11:18:39;;;;;;;18.10;4.68;;;;;;;;;;4929548;29;20061;-64
2022/05/15 11:21:08;;;;;;;16.35;5.00;;;;;;;;;;4943777;29;20498;-64
2022/05/15 11:23:42;;;;;;;18.52;5.18;;;;;;;;;;4948146;29;20058;-64
2022/05/15 11:26:13;;;;;;;19.80;4.97;;;;;;;;;;4932272;29;20052;-64
2022/05/15 11:28:42;;;;;;;18.65;4.63;;;;;;;;;;4929898;29;20062;-64
2022/05/15 11:31:13;;;;;;;21.23;5.32;;;;;;;;;;4946687;29;20170;-64
2022/05/15 11:33:51;;;;;;;17.90;5.25;;;;;;;;;;4927417;29;20055;-64
2022/05/15 11:36:30;;;;;;;19.90;5.82;;;;;;;;;;4946709;29;20052;-64
2022/05/15 11:39:02;;;;;;;17.25;4.72;;;;;;;;;;4928440;29;20136;-64
2022/05/15 11:41:38;;;;;;;18.27;5.63;;;;;;;;;;4932641;29;20059;-64
2022/05/15 11:44:09;;;;;;;18.30;5.18;;;;;;;;;;4948147;28;20059;-64
2022/05/15 11:46:54;;;;;;;18.88;5.15;;;;;;;;;;4947260;28;20137;-64
2022/05/15 11:49:27;;;;;;;16.15;5.43;;;;;;;;;;4949902;28;20554;-64
2022/05/15 11:52:13;;;;;;;17.23;5.00;;;;;;;;;;4946370;29;20569;-64
2022/05/15 11:54:42;;;;;;;16.33;4.72;;;;;;;;;;4952080;28;20122;-64
2022/05/15 11:57:10;;;;;;;14.48;4.30;;;;;;;;;;4930793;29;20134;-64
2022/05/15 11:59:40;;;;;;;15.75;4.57;;;;;;;;;;4948150;28;20115;-64
2022/05/15 12:02:31;;;;;;;16.13;4.43;;;;;;;;;;4949194;28;20051;-64
2022/05/15 12:05:03;;;;;;;13.30;3.60;;;;;;;;;;4947864;28;20137;-64
2022/05/15 12:07:30;;;;;;;;;;;;;;;;;;4952337;28;20137;-64
2022/05/15 12:09:58;;;;;;;12.15;4.15;;;;;;;;;;4930884;29;19930;-64
2022/05/15 12:12:52;;;;;;;12.70;4.13;;;;;;;;;;4948629;28;20051;-65
2022/05/15 12:15:27;;;;;;;12.55;3.50;;;;;;;;;;4946777;28;20106;-65
2022/05/15 12:17:57;;;;;;;11.10;3.75;;;;;;;;;;4946331;29;20094;-65
2022/05/15 12:20:36;;;;;;;13.13;3.72;;;;;;;;;;4930271;29;20086;-65
2022/05/15 12:23:05;;;;;;;11.45;3.60;;;;;;;;;;4947463;28;20075;-65
2022/05/15 12:25:33;;;;;;;14.35;3.55;;;;;;;;;;4949663;28;20557;-64
2022/05/15 12:30:44;;;;;;;11.93;3.53;;;;;;;;;;4947518;28;20051;-65
2022/05/15 12:33:12;;;;;;;11.60;3.65;;;;;;;;;;4935352;29;20105;-65
2022/05/15 12:35:43;;;;;;;10.73;3.78;;;;;;;;;;4948235;28;20043;-65
2022/05/15 12:38:14;;;;;;;12.95;3.75;;;;;;;;;;4935866;29;20051;-65
2022/05/15 12:40:43;;;;;;;15.65;3.83;;;;;;;;;;4955052;28;20047;-65
2022/05/15 12:43:20;;;;;;;11.45;4.05;;;;;;;;;;4950834;28;20055;-65
2022/05/15 12:45:47;;;;;;;11.10;3.65;;;;;;;;;;4948718;28;20055;-65
2022/05/15 12:48:14;;;;;;;15.90;3.70;;;;;;;;;;4951476;28;20059;-65
2022/05/15 12:50:50;;;;;;;21.55;3.95;;;;;;;;;;4953392;28;20133;-65
2022/05/15 12:53:22;;;;;;;10.63;3.53;;;;;;;;;;4932666;29;20055;-65
2022/05/15 12:55:50;;;;;;;15.23;3.95;;;;;;;;;;4950953;28;20406;-65
2022/05/15 12:58:28;;;;;;;14.52;4.22;;;;;;;;;;4935917;28;20043;-65
2022/05/15 13:00:55;;;;;;;16.77;4.55;;;;;;;;;;4949057;28;20051;-65
2022/05/15 13:03:23;;;;;;;13.77;4.47;;;;;;;;;;4949535;28;20059;-65
2022/05/15 13:05:53;;;;;;;16.27;4.00;;;;;;;;;;4956158;28;20055;-66
2022/05/15 13:08:20;;;;;;;11.75;4.22;;;;;;;;;;4939027;28;20678;-65
2022/05/15 13:10:53;;;;;;;9.95;3.72;;;;;;;;;;4947145;28;20105;-65
2022/05/15 13:13:23;;;;;;;15.10;4.32;;;;;;;;;;4941907;28;20052;-65
2022/05/15 13:15:52;;;;;;;16.52;4.30;;;;;;;;;;4942409;29;20062;-65
2022/05/15 13:18:19;;;;;;;15.25;4.55;;;;;;;;;;4941360;28;20062;-66
2022/05/15 13:20:49;;;;;;;12.93;4.40;;;;;;;;;;4943359;28;20063;-66
2022/05/15 13:23:18;;;;;;;18.83;4.70;;;;;;;;;;4940949;28;20055;-65
2022/05/15 13:25:47;;;;;;;29.23;5.30;;;;;;;;;;4944243;28;20356;-65
2022/05/15 13:28:15;;;;;;;16.40;4.63;;;;;;;;;;4925983;29;20063;-65
2022/05/15 13:30:43;;;;;;;12.85;4.85;;;;;;;;;;4952350;28;20546;-65
2022/05/15 13:33:11;;;;;;;10.23;4.18;;;;;;;;;;4953907;28;20529;-65
2022/05/15 13:35:40;;;;;;;23.23;4.43;;;;;;;;;;4949128;28;20043;-65
2022/05/15 13:38:21;;;;;;;26.52;4.70;;;;;;;;;;4954015;28;20364;-65
2022/05/15 13:43:35;;;;;;;18.08;4.88;;;;;;;;;;4948505;28;20058;-65
2022/05/15 13:46:04;;;;;;;14.35;4.90;;;;;;;;;;4945941;28;20074;-65
2022/05/15 13:48:51;;;;;;;18.40;4.72;;;;;;;;;;4946480;29;20051;-65
2022/05/15 13:51:30;;;;;;;14.85;4.85;;;;;;;;;;4949033;28;20052;-65
2022/05/15 13:54:07;;;;;;;11.55;4.35;;;;;;;;;;4948869;28;20051;-65
2022/05/15 13:56:34;;;;;;;13.52;4.68;;;;;;;;;;4933570;29;20569;-65
2022/05/15 13:59:01;;;;;;;12.15;4.20;;;;;;;;;;4946921;28;20059;-65
2022/05/15 14:01:29;;;;;;;14.45;5.35;;;;;;;;;;4949181;28;20047;-65
2022/05/15 14:03:57;;;;;;;16.88;4.55;;;;;;;;;;4948218;28;20067;-65
2022/05/15 14:06:29;;;;;;;14.20;4.45;;;;;;;;;;4947804;28;20384;-65
2022/05/15 14:08:56;;;;;;;;;;;;;;;;;;4931953;29;20067;-65
2022/05/15 14:11:25;;;;;;;10.05;3.90;;;;;;;;;;4947971;28;19923;-65
2022/05/15 14:13:53;;;;;;;12.40;3.95;;;;;;;;;;4946586;28;20139;-66
2022/05/15 14:16:22;;;;;;;10.10;3.83;;;;;;;;;;4946871;28;20562;-65
2022/05/15 14:18:49;;;;;;;18.17;4.22;;;;;;;;;;4947237;29;20141;-66
2022/05/15 14:21:17;;;;;;;10.40;3.58;;;;;;;;;;4948583;28;20070;-66
2022/05/15 14:23:45;;;;;;;11.88;4.30;;;;;;;;;;4946715;28;20066;-66
2022/05/15 14:26:13;;;;;;;11.20;3.85;;;;;;;;;;4929008;29;20059;-66
2022/05/15 14:28:42;;;;;;;11.63;3.80;;;;;;;;;;4928100;29;20452;-66
2022/05/15 14:31:09;;;;;;;11.70;4.07;;;;;;;;;;4936241;28;20532;-66
2022/05/15 14:33:37;;;;;;;9.40;3.70;;;;;;;;;;4942660;28;20051;-66
2022/05/15 14:36:06;;;;;;;14.57;4.10;;;;;;;;;;4948897;28;20446;-66
2022/05/15 14:38:33;;;;;;;11.02;3.60;;;;;;;;;;4947635;28;20047;-66
2022/05/15 14:41:00;;;;;;;26.48;4.72;;;;;;;;;;4948178;28;20055;-66
2022/05/15 14:43:28;;;;;;;11.05;4.15;;;;;;;;;;4946540;28;20050;-66
2022/05/15 14:46:00;;;;;;;72.90;7.85;;;;;;;;;;4944418;28;20165;-66
2022/05/15 14:48:27;;;;;;;;;;;;;;;;;;4923479;29;20674;-66
2022/05/15 14:50:56;;;;;;;8.77;4.00;;;;;;;;;;4940500;28;19973;-66
2022/05/15 14:53:24;;;;;;;10.65;4.43;;;;;;;;;;4944676;28;20051;-66
2022/05/15 14:56:10;;;;;;;9.63;4.10;;;;;;;;;;4940711;28;20130;-66
2022/05/15 14:58:39;;;;;;;10.57;4.00;;;;;;;;;;4919679;28;20043;-66
2022/05/15 15:01:07;;;;;;;11.38;4.18;;;;;;;;;;4944106;28;20051;-66
2022/05/15 15:03:34;;;;;;;12.45;4.00;;;;;;;;;;4932162;28;20051;-66
2022/05/15 15:06:03;;;;;;;10.68;4.18;;;;;;;;;;4942800;28;20056;-66
2022/05/15 15:08:31;;;;;;;9.73;3.95;;;;;;;;;;4925856;29;20047;-66
2022/05/15 15:11:09;;;;;;;13.55;4.70;;;;;;;;;;4938139;28;20058;-66
2022/05/15 15:13:36;;;;;;;9.15;4.03;;;;;;;;;;4946788;28;20051;-66